Kirishima Maru No.15 — JM6546 — position and weather

sailwx.info

Track history (hours):
 
Tides and Currents Weather Stations Pressure Air Temp Water Temp Dewpoint Dewpoint Depression Visibility Wind Speed Wind Dir Waves Ship Positions

Kirishima Maru No.15

Last reported at 2017-Oct-14 08:06 UTC. Time now 2017-Oct-18 00:22 UTC.
Position N 34°58' E 139°31'.

Length 101 m; draft 5.5 m.

Type: Tanker. MMSI: 431600872.

Date/timePositionNaut miles runAvg speedWind from/ knotsBaromVisibWave heightAir tempDewpointWater temp
2017-Oct-14 08:06N 34°58' E 139°31'111.8
2017-Oct-14 08:00N 34°59' E 139°32'713.5
2017-Oct-14 07:30N 35°04' E 139°38'714.2
2017-Oct-14 07:00N 35°09' E 139°43'713.8
2017-Oct-14 06:30N 35°15' E 139°46'713.4
2017-Oct-14 06:00N 35°21' E 139°42'713.8
2017-Oct-14 05:30N 35°27' E 139°46'5 3.2
2017-Oct-14 04:04N 35°31' E 139°50'0 0.0
2017-Oct-14 03:49N 35°31' E 139°50'0 0.0
2017-Oct-14 03:13N 35°31' E 139°50'0 0.0
2017-Oct-14 02:49N 35°31' E 139°50'0 0.0
2017-Oct-14 02:22N 35°31' E 139°50'0 0.0
2017-Oct-14 01:52N 35°31' E 139°50'0 0.0
2017-Oct-14 01:28N 35°31' E 139°50'0 0.0
2017-Oct-14 00:55N 35°31' E 139°50'0 1.2
2017-Oct-14 00:30N 35°31' E 139°51'  
2017-Oct-10 07:19N 35°35' E 140°03'0 0.0
2017-Oct-10 06:58N 35°35' E 140°03'0 0.0
2017-Oct-10 06:28N 35°35' E 140°03'0 0.0
2017-Oct-10 05:55N 35°35' E 140°03'0 0.0
2017-Oct-10 05:22N 35°35' E 140°03'12 4.1
2017-Oct-10 02:24N 35°31' E 139°48'1 2.6
2017-Oct-10 02:00N 35°32' E 139°48'0 0.0
2017-Oct-10 01:27N 35°32' E 139°48'0 0.0
2017-Oct-10 01:00N 35°32' E 139°48'0 0.0
2017-Oct-10 00:30N 35°32' E 139°48'0 0.0
2017-Oct-10 00:00N 35°32' E 139°48'0 0.0
2017-Oct-09 23:30N 35°32' E 139°48'0 0.0
2017-Oct-09 22:57N 35°32' E 139°48'0 0.2
2017-Oct-09 22:30N 35°32' E 139°48'  
2017-Oct-06 02:42N 35°31' E 139°54'312.9
2017-Oct-06 02:29N 35°31' E 139°51'3 4.2
2017-Oct-06 01:52N 35°32' E 139°48'0 0.0
2017-Oct-06 01:28N 35°32' E 139°48'0 0.0
2017-Oct-06 00:58N 35°32' E 139°48'0 0.0
2017-Oct-06 00:25N 35°32' E 139°48'0 0.0
2017-Oct-05 23:58N 35°32' E 139°48'0 0.0
2017-Oct-05 23:28N 35°32' E 139°48'0 0.0
2017-Oct-05 22:58N 35°32' E 139°48'0 0.3
2017-Oct-05 22:28N 35°32' E 139°48'2 4.9
2017-Oct-05 22:00N 35°30' E 139°50'0 0.1
2017-Oct-05 21:30N 35°30' E 139°50'0 0.0
2017-Oct-05 21:00N 35°30' E 139°50'0 0.0
2017-Oct-05 19:51N 35°30' E 139°50'0 0.1
2017-Oct-05 19:21N 35°30' E 139°50'0 0.0
2017-Oct-05 16:39N 35°30' E 139°50'0 0.1
2017-Oct-05 15:21N 35°30' E 139°50'0 0.0
2017-Oct-05 15:00N 35°30' E 139°50'0 0.0
2017-Oct-05 11:30N 35°30' E 139°50'0 0.0
2017-Oct-05 10:42N 35°30' E 139°50'0 0.0
2017-Oct-05 10:12N 35°30' E 139°50'0 0.0
2017-Oct-05 09:51N 35°30' E 139°50'0 0.0
2017-Oct-05 07:51N 35°30' E 139°50'0 0.1
2017-Oct-05 07:30N 35°30' E 139°50'0 0.1
2017-Oct-05 06:51N 35°30' E 139°50'2 6.2
2017-Oct-05 06:29N 35°31' E 139°53'  
Track history (hours):
 
Tides and Currents Weather Stations Pressure Air Temp Water Temp Dewpoint Dewpoint Depression Visibility Wind Speed Wind Dir Waves Ship Positions

Kirishima Maru No.15

Last reported at 2017-Oct-14 08:06 UTC. Time now 2017-Oct-18 00:22 UTC.
Position N 34°58' E 139°31'.

Length 101 m; draft 5.5 m.

Type: Tanker. MMSI: 431600872.

Date/timePositionNaut miles runAvg speedWind from/ knotsBaromVisibWave heightAir tempDewpointWater temp
2017-Oct-14 08:06N 34°58' E 139°31'111.8
2017-Oct-14 08:00N 34°59' E 139°32'713.5
2017-Oct-14 07:30N 35°04' E 139°38'714.2
2017-Oct-14 07:00N 35°09' E 139°43'713.8
2017-Oct-14 06:30N 35°15' E 139°46'713.4
2017-Oct-14 06:00N 35°21' E 139°42'713.8
2017-Oct-14 05:30N 35°27' E 139°46'5 3.2
2017-Oct-14 04:04N 35°31' E 139°50'0 0.0
2017-Oct-14 03:49N 35°31' E 139°50'0 0.0
2017-Oct-14 03:13N 35°31' E 139°50'0 0.0
2017-Oct-14 02:49N 35°31' E 139°50'0 0.0
2017-Oct-14 02:22N 35°31' E 139°50'0 0.0
2017-Oct-14 01:52N 35°31' E 139°50'0 0.0
2017-Oct-14 01:28N 35°31' E 139°50'0 0.0
2017-Oct-14 00:55N 35°31' E 139°50'0 1.2
2017-Oct-14 00:30N 35°31' E 139°51'  
2017-Oct-10 07:19N 35°35' E 140°03'0 0.0
2017-Oct-10 06:58N 35°35' E 140°03'0 0.0
2017-Oct-10 06:28N 35°35' E 140°03'0 0.0
2017-Oct-10 05:55N 35°35' E 140°03'0 0.0
2017-Oct-10 05:22N 35°35' E 140°03'12 4.1
2017-Oct-10 02:24N 35°31' E 139°48'1 2.6
2017-Oct-10 02:00N 35°32' E 139°48'0 0.0
2017-Oct-10 01:27N 35°32' E 139°48'0 0.0
2017-Oct-10 01:00N 35°32' E 139°48'0 0.0
2017-Oct-10 00:30N 35°32' E 139°48'0 0.0
2017-Oct-10 00:00N 35°32' E 139°48'0 0.0
2017-Oct-09 23:30N 35°32' E 139°48'0 0.0
2017-Oct-09 22:57N 35°32' E 139°48'0 0.2
2017-Oct-09 22:30N 35°32' E 139°48'  
2017-Oct-06 02:42N 35°31' E 139°54'312.9
2017-Oct-06 02:29N 35°31' E 139°51'3 4.2
2017-Oct-06 01:52N 35°32' E 139°48'0 0.0
2017-Oct-06 01:28N 35°32' E 139°48'0 0.0
2017-Oct-06 00:58N 35°32' E 139°48'0 0.0
2017-Oct-06 00:25N 35°32' E 139°48'0 0.0
2017-Oct-05 23:58N 35°32' E 139°48'0 0.0
2017-Oct-05 23:28N 35°32' E 139°48'0 0.0
2017-Oct-05 22:58N 35°32' E 139°48'0 0.3
2017-Oct-05 22:28N 35°32' E 139°48'2 4.9
2017-Oct-05 22:00N 35°30' E 139°50'0 0.1
2017-Oct-05 21:30N 35°30' E 139°50'0 0.0
2017-Oct-05 21:00N 35°30' E 139°50'0 0.0
2017-Oct-05 19:51N 35°30' E 139°50'0 0.1
2017-Oct-05 19:21N 35°30' E 139°50'0 0.0
2017-Oct-05 16:39N 35°30' E 139°50'0 0.1
2017-Oct-05 15:21N 35°30' E 139°50'0 0.0
2017-Oct-05 15:00N 35°30' E 139°50'0 0.0
2017-Oct-05 11:30N 35°30' E 139°50'0 0.0
2017-Oct-05 10:42N 35°30' E 139°50'0 0.0
2017-Oct-05 10:12N 35°30' E 139°50'0 0.0
2017-Oct-05 09:51N 35°30' E 139°50'0 0.0
2017-Oct-05 07:51N 35°30' E 139°50'0 0.1
2017-Oct-05 07:30N 35°30' E 139°50'0 0.1
2017-Oct-05 06:51N 35°30' E 139°50'2 6.2
2017-Oct-05 06:29N 35°31' E 139°53'  

Dump ship's entire track history